Time;durP1;ratioP1;P1;durP2;ratioP2;P2;SDS_P1;SDS_P2;PMS_P1;PMS_P2;Temp;Humidity;BMP_temperature;BMP_pressure;BME280_temperature;BME280_humidity;BME280_pressure;Samples;Min_cycle;Max_cycle;Signal;HPM_P1;HPM_P2
2022/10/18 00:00:50;;;;;;;;;;;17.50;99.90;;;;;;5074846;28;19915;-83
2022/10/18 00:03:15;;;;;;;;;;;17.40;99.90;;;;;;5074183;28;19956;-83
2022/10/18 00:05:40;;;;;;;;;;;17.50;99.90;;;;;;5092500;28;19968;-83
2022/10/18 00:08:06;;;;;;;;;;;17.50;99.90;;;;;;5092137;28;19971;-83
2022/10/18 00:10:31;;;;;;;;;;;17.40;99.90;;;;;;5092592;28;19912;-83
2022/10/18 00:12:57;;;;;;;;;;;17.50;99.90;;;;;;5074692;28;20418;-83
2022/10/18 00:15:22;;;;;;;;;;;17.40;99.90;;;;;;5093131;28;19915;-84
2022/10/18 00:17:48;;;;;;;;;;;17.40;99.90;;;;;;5092941;28;19915;-83
2022/10/18 00:20:13;;;;;;;;;;;17.50;99.90;;;;;;5094899;28;19908;-83
2022/10/18 00:22:39;;;;;;;;;;;17.50;99.90;;;;;;5096479;28;19970;-82
2022/10/18 00:25:05;;;;;;;;;;;17.50;99.90;;;;;;5077986;28;19913;-83
2022/10/18 00:27:31;;;;;;;;;;;17.50;99.90;;;;;;5096343;28;19959;-83
2022/10/18 00:29:56;;;;;;;;;;;17.50;99.90;;;;;;5078023;28;19935;-83
2022/10/18 00:32:22;;;;;;;;;;;17.60;99.90;;;;;;5096188;28;19918;-83
2022/10/18 00:34:48;;;;;;;;;;;17.50;99.90;;;;;;5095805;28;19914;-83
2022/10/18 00:37:13;;;;;;;;;;;17.50;99.90;;;;;;5095889;28;19993;-83
2022/10/18 00:39:39;;;;;;;;;;;17.60;99.90;;;;;;5077488;28;19908;-83
2022/10/18 00:42:04;;;;;;;;;;;17.60;99.90;;;;;;5077628;28;20408;-83
2022/10/18 00:44:29;;;;;;;;;;;17.50;99.90;;;;;;5077509;28;20014;-84
2022/10/18 00:46:57;;;;;;;;;;;17.60;99.90;;;;;;5095557;28;19919;-83
2022/10/18 00:49:26;;;;;;;;;;;17.50;99.90;;;;;;5077172;28;20037;-83
2022/10/18 00:51:56;;;;;;;;;;;17.50;99.90;;;;;;5095594;28;19951;-83
2022/10/18 00:54:22;;;;;;;;;;;17.40;99.90;;;;;;5095489;28;19921;-83
2022/10/18 00:56:48;;;;;;;;;;;17.40;99.90;;;;;;5095516;28;20003;-83
2022/10/18 00:59:15;;;;;;;;;;;17.50;99.90;;;;;;5095143;28;20005;-84
2022/10/18 01:01:40;;;;;;;;;;;17.40;99.90;;;;;;5096032;28;19951;-84
2022/10/18 01:04:05;;;;;;;;;;;17.40;99.90;;;;;;5078323;28;19951;-83
2022/10/18 01:06:32;;;;;;;;;;;17.50;99.90;;;;;;5096676;28;19915;-84
2022/10/18 01:09:16;;;;;;;;;;;17.60;99.90;;;;;;5096980;28;19908;-83
2022/10/18 01:12:01;;;;;;;;;;;17.40;99.90;;;;;;5077386;28;19915;-84
2022/10/18 01:14:38;;;;;;;;;;;17.40;99.90;;;;;;5094729;28;19952;-83
2022/10/18 01:17:06;;;;;;;;;;;17.40;99.90;;;;;;5076693;28;19908;-83
2022/10/18 01:19:47;;;;;;;;;;;17.50;99.90;;;;;;5076539;28;19943;-84
2022/10/18 01:22:12;;;;;;;;;;;17.50;99.90;;;;;;5076661;28;19909;-83
2022/10/18 01:24:38;;;;;;;;;;;17.50;99.90;;;;;;5094423;28;19946;-83
2022/10/18 01:27:03;;;;;;;;;;;17.50;99.90;;;;;;5094776;28;19914;-83
2022/10/18 01:29:32;;;;;;;;;;;17.50;99.90;;;;;;5094505;28;19954;-83
2022/10/18 01:32:00;;;;;;;;;;;17.50;99.90;;;;;;5075660;28;20297;-83
2022/10/18 01:34:27;;;;;;;;;;;17.50;99.90;;;;;;5076184;28;19930;-83
2022/10/18 01:36:54;;;;;;;;;;;17.50;99.90;;;;;;5095297;28;19915;-83
2022/10/18 01:39:25;;;;;;;;;;;17.50;99.90;;;;;;5095053;28;19915;-83
2022/10/18 01:41:52;;;;;;;;;;;17.50;99.90;;;;;;5094704;28;19931;-83
2022/10/18 01:44:22;;;;;;;;;;;17.50;99.90;;;;;;5075829;28;19935;-84
2022/10/18 01:46:49;;;;;;;;;;;17.50;99.90;;;;;;5076122;28;19908;-83
2022/10/18 01:49:14;;;;;;;;;;;17.50;99.90;;;;;;5094190;28;19995;-83
2022/10/18 01:51:40;;;;;;;;;;;17.60;99.90;;;;;;5094162;28;19962;-84
2022/10/18 01:54:05;;;;;;;;;;;17.60;99.90;;;;;;5075704;28;20002;-83
2022/10/18 01:56:31;;;;;;;;;;;17.60;99.90;;;;;;5094191;28;20273;-84
2022/10/18 01:59:15;;;;;;;;;;;17.50;99.90;;;;;;5114788;22;19924;-81
2022/10/18 02:01:43;;;;;;;;;;;17.50;99.90;;;;;;5077540;28;19959;-81
2022/10/18 02:04:32;;;;;;;;;;;17.50;99.90;;;;;;5076768;28;19916;-81
2022/10/18 02:07:02;;;;;;;;;;;17.50;99.90;;;;;;5064033;28;19908;-81
2022/10/18 02:09:33;;;;;;;;;;;17.50;99.90;;;;;;5095562;28;19908;-81
2022/10/18 02:12:00;;;;;;;;;;;17.50;99.90;;;;;;5098628;28;19926;-81
2022/10/18 02:14:26;;;;;;;;;;;17.50;99.90;;;;;;5075852;28;19969;-81
2022/10/18 02:16:57;;;;;;;;;;;17.40;99.90;;;;;;5075764;28;20424;-81
2022/10/18 02:19:31;;;;;;;;;;;17.40;99.90;;;;;;5093772;28;19908;-81
2022/10/18 02:21:57;;;;;;;;;;;17.40;99.90;;;;;;5075678;28;19908;-81
2022/10/18 02:24:25;;;;;;;;;;;17.40;99.90;;;;;;5075243;28;19927;-81
2022/10/18 02:26:51;;;;;;;;;;;17.40;99.90;;;;;;5093648;28;19908;-81
2022/10/18 02:29:16;;;;;;;;;;;17.40;99.90;;;;;;5093522;28;19908;-81
2022/10/18 02:31:43;;;;;;;;;;;17.40;99.90;;;;;;5075501;28;19912;-81
2022/10/18 02:34:15;;;;;;;;;;;17.40;99.90;;;;;;5075256;28;19919;-81
2022/10/18 02:36:54;;;;;;;;;;;17.40;99.90;;;;;;5093610;28;19934;-81
2022/10/18 02:39:28;;;;;;;;;;;17.40;99.90;;;;;;5093426;28;19919;-81
2022/10/18 02:41:53;;;;;;;;;;;17.40;99.90;;;;;;5092942;28;19969;-81
2022/10/18 02:44:19;;;;;;;;;;;17.40;99.90;;;;;;5074789;28;20373;-81
2022/10/18 02:46:45;;;;;;;;;;;17.50;99.90;;;;;;5093241;28;19909;-80
2022/10/18 02:49:10;;;;;;;;;;;17.40;99.90;;;;;;5075255;28;19916;-81
2022/10/18 02:51:36;;;;;;;;;;;17.50;99.90;;;;;;5075308;28;20365;-81
2022/10/18 02:54:01;;;;;;;;;;;17.40;99.90;;;;;;5074456;28;19915;-81
2022/10/18 02:56:27;;;;;;;;;;;17.30;99.90;;;;;;5078237;28;19908;-82
2022/10/18 02:58:52;;;;;;;;;;;17.40;99.90;;;;;;5098951;28;19948;-82
2022/10/18 03:01:17;;;;;;;;;;;17.50;99.90;;;;;;5097695;28;19912;-82
2022/10/18 03:03:43;;;;;;;;;;;17.50;99.90;;;;;;5079264;28;20284;-81
2022/10/18 03:06:08;;;;;;;;;;;17.40;99.90;;;;;;5079589;28;19974;-81
2022/10/18 03:08:34;;;;;;;;;;;17.30;99.90;;;;;;5078012;28;20007;-81
2022/10/18 03:11:00;;;;;;;;;;;17.40;99.90;;;;;;5099331;28;19977;-81
2022/10/18 03:13:25;;;;;;;;;;;17.30;99.90;;;;;;5085262;28;19908;-81
2022/10/18 03:15:51;;;;;;;;;;;17.40;99.90;;;;;;5103516;28;19908;-81
2022/10/18 03:18:16;;;;;;;;;;;17.40;99.90;;;;;;5077706;28;19915;-81
2022/10/18 03:20:42;;;;;;;;;;;17.30;99.90;;;;;;5074908;28;20372;-81
2022/10/18 03:23:07;;;;;;;;;;;17.40;99.90;;;;;;5092753;28;19928;-81
2022/10/18 03:25:33;;;;;;;;;;;17.40;99.90;;;;;;5093351;28;20311;-81
2022/10/18 03:27:58;;;;;;;;;;;17.50;99.90;;;;;;5074841;28;19975;-81
2022/10/18 03:30:24;;;;;;;;;;;17.40;99.90;;;;;;5092867;28;19951;-81
2022/10/18 03:32:49;;;;;;;;;;;17.50;99.90;;;;;;5074717;28;19957;-82
2022/10/18 03:35:15;;;;;;;;;;;17.30;99.90;;;;;;5074614;28;19915;-82
2022/10/18 03:37:40;;;;;;;;;;;17.30;99.90;;;;;;5074765;28;19974;-82
2022/10/18 03:40:06;;;;;;;;;;;17.30;99.90;;;;;;5093009;28;20349;-82
2022/10/18 03:42:32;;;;;;;;;;;17.30;99.90;;;;;;5074693;28;19908;-82
2022/10/18 03:44:57;;;;;;;;;;;17.30;99.90;;;;;;5092435;28;19912;-82
2022/10/18 03:47:23;;;;;;;;;;;17.30;99.90;;;;;;5093038;28;19909;-81
2022/10/18 03:49:48;;;;;;;;;;;17.30;99.90;;;;;;5092852;28;20001;-81
2022/10/18 03:52:13;;;;;;;;;;;17.30;99.90;;;;;;5093102;28;19908;-81
2022/10/18 03:54:39;;;;;;;;;;;17.30;99.90;;;;;;5094001;28;20380;-81
2022/10/18 03:57:04;;;;;;;;;;;17.30;99.90;;;;;;5078976;28;19908;-81
2022/10/18 03:59:30;;;;;;;;;;;17.30;99.90;;;;;;5096966;28;19923;-81
2022/10/18 04:01:55;;;;;;;;;;;17.30;99.90;;;;;;5079050;28;20379;-81
2022/10/18 04:04:21;;;;;;;;;;;17.30;99.90;;;;;;5078591;28;19912;-81
2022/10/18 04:06:46;;;;;;;;;;;17.40;99.90;;;;;;5078818;28;19908;-81
2022/10/18 04:09:12;;;;;;;;;;;17.40;99.90;;;;;;5078819;28;20002;-81
2022/10/18 04:11:37;;;;;;;;;;;17.50;99.90;;;;;;5078845;28;20334;-81
2022/10/18 04:14:03;;;;;;;;;;;17.40;99.90;;;;;;5097297;28;19908;-81
2022/10/18 04:16:28;;;;;;;;;;;17.30;99.90;;;;;;5079572;28;19912;-81
2022/10/18 04:18:54;;;;;;;;;;;17.40;99.90;;;;;;5079083;28;19913;-81
2022/10/18 04:21:19;;;;;;;;;;;17.30;99.90;;;;;;5078716;28;19915;-81
2022/10/18 04:23:48;;;;;;;;;;;17.30;99.90;;;;;;5096994;28;20323;-81
2022/10/18 04:26:15;;;;;;;;;;;17.30;99.90;;;;;;5079838;28;20365;-81
2022/10/18 04:28:41;;;;;;;;;;;17.30;99.90;;;;;;5079510;28;19943;-81
2022/10/18 04:31:06;;;;;;;;;;;17.40;99.90;;;;;;5080157;28;20263;-81
2022/10/18 04:33:32;;;;;;;;;;;17.50;99.90;;;;;;5079294;28;19952;-81
2022/10/18 04:35:57;;;;;;;;;;;17.40;99.90;;;;;;5079658;28;19915;-81
2022/10/18 04:38:23;;;;;;;;;;;17.40;99.90;;;;;;5097686;28;19908;-81
2022/10/18 04:40:48;;;;;;;;;;;17.40;99.90;;;;;;5098235;28;20273;-81
2022/10/18 04:43:14;;;;;;;;;;;17.40;99.90;;;;;;5097186;28;19911;-81
2022/10/18 04:45:39;;;;;;;;;;;17.40;99.90;;;;;;5078991;28;20061;-81
2022/10/18 04:48:05;;;;;;;;;;;17.40;99.90;;;;;;5097104;28;19915;-81
2022/10/18 04:50:30;;;;;;;;;;;17.40;99.90;;;;;;5079102;28;19931;-81
2022/10/18 04:52:56;;;;;;;;;;;17.40;99.90;;;;;;5096599;28;19908;-81
2022/10/18 04:55:21;;;;;;;;;;;17.50;99.90;;;;;;5078498;28;19943;-81
2022/10/18 04:57:47;;;;;;;;;;;17.40;99.90;;;;;;5078747;28;19955;-80
2022/10/18 05:00:12;;;;;;;;;;;17.40;99.90;;;;;;5079008;28;19969;-81
2022/10/18 05:02:38;;;;;;;;;;;17.40;99.90;;;;;;5078635;28;19915;-81
2022/10/18 05:05:03;;;;;;;;;;;17.40;99.90;;;;;;5078178;28;19934;-80
2022/10/18 05:07:29;;;;;;;;;;;17.40;99.90;;;;;;5077804;28;20428;-81
2022/10/18 05:09:54;;;;;;;;;;;17.40;99.90;;;;;;5096827;28;19959;-80
2022/10/18 05:12:21;;;;;;;;;;;17.40;99.90;;;;;;5078845;28;19912;-80
2022/10/18 05:14:46;;;;;;;;;;;17.50;99.90;;;;;;5078707;28;19915;-80
2022/10/18 05:17:12;;;;;;;;;;;17.40;99.90;;;;;;5078715;28;20305;-80
2022/10/18 05:19:37;;;;;;;;;;;17.40;99.90;;;;;;5078279;28;20394;-80
2022/10/18 05:22:03;;;;;;;;;;;17.40;99.90;;;;;;5078503;28;19908;-80
2022/10/18 05:24:28;;;;;;;;;;;17.50;99.90;;;;;;5078336;28;19916;-80
2022/10/18 05:26:54;;;;;;;;;;;17.50;99.90;;;;;;5096682;28;19914;-80
2022/10/18 05:29:19;;;;;;;;;;;17.40;99.90;;;;;;5096261;28;19908;-80
2022/10/18 05:31:45;;;;;;;;;;;17.40;99.90;;;;;;5077968;28;20338;-81
2022/10/18 05:34:10;;;;;;;;;;;17.50;99.90;;;;;;5077646;28;19914;-80
2022/10/18 05:36:36;;;;;;;;;;;17.60;99.90;;;;;;5096909;28;19934;-80
2022/10/18 05:39:03;;;;;;;;;;;17.50;99.90;;;;;;5097021;28;19908;-80
2022/10/18 05:41:28;;;;;;;;;;;17.40;99.90;;;;;;5097029;28;19999;-81
2022/10/18 05:43:54;;;;;;;;;;;17.60;99.90;;;;;;5078440;28;19947;-81
2022/10/18 05:46:19;;;;;;;;;;;17.40;99.90;;;;;;5096951;28;19909;-80
2022/10/18 05:48:48;;;;;;;;;;;17.40;99.90;;;;;;5079036;28;19908;-81
2022/10/18 05:51:14;;;;;;;;;;;17.40;99.90;;;;;;5080258;28;19908;-81
2022/10/18 05:53:39;;;;;;;;;;;17.40;99.90;;;;;;5099910;28;19914;-81
2022/10/18 05:56:06;;;;;;;;;;;17.50;99.90;;;;;;5099964;28;19916;-81
2022/10/18 05:58:31;;;;;;;;;;;17.40;99.90;;;;;;5081207;28;20206;-81
2022/10/18 06:01:00;;;;;;;;;;;17.40;99.90;;;;;;5099659;28;19915;-81
2022/10/18 06:03:26;;;;;;;;;;;17.40;99.90;;;;;;5081620;28;20062;-81
2022/10/18 06:05:52;;;;;;;;;;;17.50;99.90;;;;;;5100003;28;19940;-81
2022/10/18 06:08:17;;;;;;;;;;;17.50;99.90;;;;;;5081408;28;19908;-81
2022/10/18 06:10:43;;;;;;;;;;;17.60;99.90;;;;;;5079498;28;19908;-81
2022/10/18 06:13:08;;;;;;;;;;;17.60;99.90;;;;;;5078758;28;19916;-81
2022/10/18 06:15:34;;;;;;;;;;;17.50;99.90;;;;;;5078626;28;19931;-81
2022/10/18 06:17:59;;;;;;;;;;;17.50;99.90;;;;;;5097507;28;19962;-81
2022/10/18 06:20:25;;;;;;;;;;;17.60;99.90;;;;;;5079157;28;19908;-81
2022/10/18 06:22:51;;;;;;;;;;;17.50;99.90;;;;;;5077948;28;19947;-81
2022/10/18 06:25:16;;;;;;;;;;;17.50;99.90;;;;;;5078238;28;19919;-81
2022/10/18 06:27:42;;;;;;;;;;;17.50;99.90;;;;;;5096322;28;19908;-81
2022/10/18 06:30:08;;;;;;;;;;;17.70;99.90;;;;;;5078304;28;19908;-81
2022/10/18 06:32:33;;;;;;;;;;;17.60;99.90;;;;;;5079098;28;19908;-81
2022/10/18 06:34:58;;;;;;;;;;;17.60;99.90;;;;;;5096465;28;19919;-81
2022/10/18 06:37:24;;;;;;;;;;;17.60;99.90;;;;;;5096547;28;19951;-81
2022/10/18 06:39:49;;;;;;;;;;;17.60;99.90;;;;;;5078222;28;19908;-81
2022/10/18 06:42:15;;;;;;;;;;;17.60;99.90;;;;;;5078842;28;20336;-81
2022/10/18 06:44:40;;;;;;;;;;;17.60;99.90;;;;;;5077862;28;19912;-80
2022/10/18 06:47:06;;;;;;;;;;;17.60;99.90;;;;;;5076777;28;20010;-80
2022/10/18 06:49:32;;;;;;;;;;;17.60;99.90;;;;;;5076406;28;20319;-80
2022/10/18 06:51:57;;;;;;;;;;;17.70;99.90;;;;;;5076519;28;19961;-80
2022/10/18 06:54:22;;;;;;;;;;;17.70;99.90;;;;;;5094108;28;20354;-80
2022/10/18 06:56:48;;;;;;;;;;;17.80;99.90;;;;;;5094658;28;19912;-81
2022/10/18 06:59:14;;;;;;;;;;;17.70;99.90;;;;;;5094256;28;20285;-81
2022/10/18 07:01:39;;;;;;;;;;;17.80;99.90;;;;;;5095068;28;19915;-81
2022/10/18 07:04:05;;;;;;;;;;;17.80;99.90;;;;;;5076088;28;19918;-80
2022/10/18 07:06:30;;;;;;;;;;;17.80;99.90;;;;;;5076448;28;19965;-80
2022/10/18 07:08:56;;;;;;;;;;;17.80;99.90;;;;;;5094382;28;20380;-80
2022/10/18 07:11:23;;;;;;;;;;;17.90;99.90;;;;;;5094514;28;19915;-80
2022/10/18 07:13:48;;;;;;;;;;;17.90;99.90;;;;;;5076464;28;19915;-80
2022/10/18 07:16:15;;;;;;;;;;;18.00;99.90;;;;;;5078530;28;20381;-82
2022/10/18 07:18:43;;;;;;;;;;;17.90;99.90;;;;;;5095947;28;20376;-80
2022/10/18 07:21:10;;;;;;;;;;;17.90;99.90;;;;;;5076786;28;20308;-81
2022/10/18 07:23:37;;;;;;;;;;;17.80;99.90;;;;;;5075787;28;20431;-80
2022/10/18 07:26:09;;;;;;;;;;;17.80;99.90;;;;;;5094570;28;19931;-81
2022/10/18 07:28:35;;;;;;;;;;;17.80;99.90;;;;;;5075551;28;20320;-80
2022/10/18 07:31:03;;;;;;;;;;;17.80;99.90;;;;;;5093747;28;19916;-80
2022/10/18 07:33:28;;;;;;;;;;;17.70;99.90;;;;;;5093235;28;19917;-80
2022/10/18 07:35:54;;;;;;;;;;;17.80;99.90;;;;;;5075646;28;19908;-80
2022/10/18 07:38:19;;;;;;;;;;;17.60;99.90;;;;;;5075116;28;19931;-80
2022/10/18 07:40:45;;;;;;;;;;;17.60;99.90;;;;;;5075203;28;19915;-80
2022/10/18 07:43:10;;;;;;;;;;;17.70;99.90;;;;;;5092887;28;19944;-80
2022/10/18 07:45:36;;;;;;;;;;;17.70;99.90;;;;;;5093146;28;19909;-80
2022/10/18 07:48:01;;;;;;;;;;;17.80;99.90;;;;;;5093647;28;20621;-82
2022/10/18 07:50:27;;;;;;;;;;;17.70;99.90;;;;;;5076024;28;20314;-83
2022/10/18 07:52:52;;;;;;;;;;;17.80;99.90;;;;;;5072897;28;20373;-81
2022/10/18 07:55:18;;;;;;;;;;;17.80;99.90;;;;;;5076789;28;20003;-83
2022/10/18 07:57:43;;;;;;;;;;;17.80;99.90;;;;;;5078512;28;19966;-82
2022/10/18 08:00:10;;;;;;;;;;;17.80;99.90;;;;;;5083323;22;19931;-83
2022/10/18 08:02:35;;;;;;;;;;;17.90;99.90;;;;;;5052912;28;19920;-83
2022/10/18 08:05:01;;;;;;;;;;;18.00;99.90;;;;;;5034584;28;19917;-83
2022/10/18 08:07:26;;;;;;;;;;;18.00;99.90;;;;;;5033666;28;19995;-85
2022/10/18 08:09:52;;;;;;;;;;;18.10;99.90;;;;;;5052638;28;19935;-85
2022/10/18 08:12:17;;;;;;;;;;;18.10;99.90;;;;;;5034452;28;19980;-84
2022/10/18 08:14:43;;;;;;;;;;;18.20;99.90;;;;;;5034273;28;19908;-84
2022/10/18 08:17:08;;;;;;;;;;;18.10;99.90;;;;;;5034159;28;19916;-83
2022/10/18 08:19:34;;;;;;;;;;;18.10;99.90;;;;;;5034435;28;19931;-83
2022/10/18 08:21:59;;;;;;;;;;;18.20;99.90;;;;;;5034084;28;19954;-85
2022/10/18 08:24:25;;;;;;;;;;;18.30;99.90;;;;;;5034185;28;20303;-84
2022/10/18 08:26:50;;;;;;;;;;;18.40;99.90;;;;;;5035003;28;19957;-84
2022/10/18 08:29:15;;;;;;;;;;;18.50;99.90;;;;;;5052584;28;19916;-82
2022/10/18 08:31:41;;;;;;;;;;;18.50;99.90;;;;;;5052368;28;19916;-82
2022/10/18 08:34:06;;;;;;;;;;;18.60;99.90;;;;;;5034532;28;19919;-82
2022/10/18 08:36:32;;;;;;;;;;;18.50;99.90;;;;;;5034812;28;19909;-83
2022/10/18 08:38:58;;;;;;;;;;;18.40;99.90;;;;;;5052845;28;20007;-82
2022/10/18 08:41:29;;;;;;;;;;;18.30;99.90;;;;;;5054938;28;20289;-82
2022/10/18 08:43:59;;;;;;;;;;;18.10;99.90;;;;;;5055452;28;19938;-82
2022/10/18 08:46:24;;;;;;;;;;;18.20;99.90;;;;;;5037640;28;19908;-79
2022/10/18 08:48:51;;;;;;;;;;;18.10;99.90;;;;;;5037481;28;19935;-79
2022/10/18 08:51:22;;;;;;;;;;;18.20;99.90;;;;;;5055229;28;19959;-79
2022/10/18 08:53:53;;;;;;;;;;;18.20;99.90;;;;;;5054965;28;19913;-79
2022/10/18 08:56:22;;;;;;;;;;;18.30;99.90;;;;;;5055147;28;19913;-79
2022/10/18 08:58:48;;;;;;;;;;;18.30;99.90;;;;;;5055235;28;19978;-80
2022/10/18 09:01:28;;;;;;;;;;;18.20;99.90;;;;;;5036875;28;19909;-79
2022/10/18 09:04:12;;;;;;;;;;;18.20;99.90;;;;;;5037082;28;19913;-79
2022/10/18 09:06:53;;;;;;;;;;;18.40;99.90;;;;;;5055014;28;19916;-79
2022/10/18 09:09:24;;;;;;;;;;;18.50;99.90;;;;;;5054614;28;19916;-79
2022/10/18 09:12:09;;;;;;;;;;;18.60;99.90;;;;;;5054983;28;19913;-79
2022/10/18 09:14:51;;;;;;;;;;;18.50;99.90;;;;;;5054624;28;19909;-79
2022/10/18 09:17:37;;;;;;;;;;;18.40;99.90;;;;;;5054715;28;19994;-79
2022/10/18 09:20:18;;;;;;;;;;;18.60;99.90;;;;;;4996383;28;19916;-79
2022/10/18 09:22:52;;;;;;;;;;;18.80;99.90;;;;;;5054626;28;20386;-79
2022/10/18 09:25:20;;;;;;;;;;;18.90;99.90;;;;;;5036515;28;20279;-79
2022/10/18 09:27:49;;;;;;;;;;;19.10;99.90;;;;;;5036648;28;19909;-79
2022/10/18 09:30:21;;;;;;;;;;;19.40;99.90;;;;;;5036563;28;19909;-79
2022/10/18 09:32:58;;;;;;;;;;;19.60;99.90;;;;;;5036413;28;19912;-82
2022/10/18 09:35:26;;;;;;;;;;;19.70;99.90;;;;;;5036503;28;19912;-82
2022/10/18 09:37:58;;;;;;;;;;;19.60;99.90;;;;;;5054611;28;19916;-82
2022/10/18 09:40:25;;;;;;;;;;;19.50;99.90;;;;;;5054258;28;19920;-82
2022/10/18 09:42:51;;;;;;;;;;;19.50;99.90;;;;;;5036264;28;19909;-83
2022/10/18 09:45:16;;;;;;;;;;;19.70;99.90;;;;;;5054323;28;19913;-82
2022/10/18 09:47:45;;;;;;;;;;;19.80;99.90;;;;;;5054211;28;19962;-82
2022/10/18 09:50:13;;;;;;;;;;;19.90;99.90;;;;;;5054280;28;20362;-81
2022/10/18 09:52:47;;;;;;;;;;;19.90;99.90;;;;;;5035688;28;19909;-82
2022/10/18 09:55:21;;;;;;;;;;;20.00;99.90;;;;;;5054146;28;19916;-84
2022/10/18 09:57:49;;;;;;;;;;;20.00;99.90;;;;;;5054049;28;19916;-84
2022/10/18 10:00:17;;;;;;;;;;;20.10;99.90;;;;;;5054031;28;19916;-83
2022/10/18 10:02:42;;;;;;;;;;;20.20;99.90;;;;;;5054152;28;19909;-84
2022/10/18 10:05:14;;;;;;;;;;;20.20;99.90;;;;;;5035662;28;20026;-84
2022/10/18 10:07:41;;;;;;;;;;;20.10;99.90;;;;;;5036249;28;19915;-84
2022/10/18 10:10:13;;;;;;;;;;;20.10;99.90;;;;;;5018643;28;21387;-84
2022/10/18 10:12:39;;;;;;;;;;;20.10;99.90;;;;;;5053861;28;19913;-84
2022/10/18 10:15:08;;;;;;;;;;;20.00;99.90;;;;;;5035601;28;19909;-83
2022/10/18 10:17:33;;;;;;;;;;;20.00;99.90;;;;;;5053707;28;19937;-83
2022/10/18 10:20:02;;;;;;;;;;;20.10;99.90;;;;;;5053743;28;20263;-83
2022/10/18 10:22:35;;;;;;;;;;;20.10;99.90;;;;;;5035891;28;19913;-84
2022/10/18 10:25:01;;;;;;;;;;;20.00;99.90;;;;;;5036093;28;19985;-84
2022/10/18 10:27:42;;;;;;;;;;;20.00;99.90;;;;;;5053526;28;20114;-84
2022/10/18 10:30:28;;;;;;;;;;;19.90;99.90;;;;;;5053584;28;19913;-83
2022/10/18 10:32:54;;;;;;;;;;;19.80;99.90;;;;;;5021597;28;19909;-84
2022/10/18 10:35:21;;;;;;;;;;;19.70;99.90;;;;;;5035735;28;20007;-84
2022/10/18 10:37:49;;;;;;;;;;;19.80;99.90;;;;;;5035003;28;19909;-83
2022/10/18 10:40:17;;;;;;;;;;;20.00;99.90;;;;;;5053589;28;19943;-83
2022/10/18 10:42:57;;;;;;;;;;;19.80;99.90;;;;;;5053711;28;19909;-84
2022/10/18 10:45:23;;;;;;;;;;;19.70;99.90;;;;;;5053230;28;19917;-84
2022/10/18 10:47:49;;;;;;;;;;;19.80;99.90;;;;;;5035440;28;20301;-84
2022/10/18 10:50:21;;;;;;;;;;;19.80;99.90;;;;;;5053400;28;19908;-83
2022/10/18 10:52:47;;;;;;;;;;;19.70;99.90;;;;;;5053720;28;20385;-84
2022/10/18 10:55:17;;;;;;;;;;;19.70;99.90;;;;;;5034777;28;19909;-85
2022/10/18 10:57:47;;;;;;;;;;;19.60;99.90;;;;;;5053122;28;20000;-83
2022/10/18 11:00:31;;;;;;;;;;;19.30;99.90;;;;;;5035261;28;19960;-84
2022/10/18 11:03:04;;;;;;;;;;;19.30;99.90;;;;;;5034927;28;19908;-81
2022/10/18 11:05:30;;;;;;;;;;;19.30;99.90;;;;;;5051804;28;19913;-80
2022/10/18 11:07:57;;;;;;;;;;;19.30;99.90;;;;;;5052834;28;19916;-80
2022/10/18 11:10:24;;;;;;;;;;;19.30;99.90;;;;;;5052171;28;20374;-80
2022/10/18 11:13:04;;;;;;;;;;;19.50;99.90;;;;;;5052549;28;19909;-80
2022/10/18 11:15:41;;;;;;;;;;;19.50;99.90;;;;;;5052756;28;20381;-80
2022/10/18 11:18:16;;;;;;;;;;;19.60;99.90;;;;;;5052677;28;19913;-80
2022/10/18 11:21:17;;;;;;;;;;;19.70;99.90;;;;;;5034638;28;20397;-80
2022/10/18 11:23:42;;;;;;;;;;;19.80;99.90;;;;;;4954831;28;19949;-80
2022/10/18 11:26:11;;;;;;;;;;;19.80;99.90;;;;;;5035633;28;19963;-80
2022/10/18 11:28:45;;;;;;;;;;;20.00;99.90;;;;;;5034400;28;19940;-80
2022/10/18 11:31:11;;;;;;;;;;;20.40;99.90;;;;;;5052175;28;19962;-80
2022/10/18 11:33:47;;;;;;;;;;;20.90;99.90;;;;;;5052088;28;20449;-81
2022/10/18 11:36:13;;;;;;;;;;;21.40;99.90;;;;;;5052538;28;19924;-80
2022/10/18 11:38:57;;;;;;;;;;;22.10;99.90;;;;;;5052237;28;19909;-80
2022/10/18 11:41:28;;;;;;;;;;;22.80;99.90;;;;;;5034016;28;19912;-80
2022/10/18 11:43:58;;;;;;;;;;;23.30;99.90;;;;;;5052301;28;19913;-79
2022/10/18 11:46:39;;;;;;;;;;;23.20;99.90;;;;;;5052310;28;19913;-80
2022/10/18 11:49:18;;;;;;;;;;;23.70;99.90;;;;;;5052468;28;19916;-81
2022/10/18 11:51:48;;;;;;;;;;;24.40;99.90;;;;;;5052104;28;19943;-81
2022/10/18 11:54:17;;;;;;;;;;;24.90;99.90;;;;;;5052403;28;19916;-80
2022/10/18 11:56:45;;;;;;;;;;;24.70;99.90;;;;;;5052256;28;19954;-80
2022/10/18 11:59:10;;;;;;;;;;;24.50;99.90;;;;;;5034417;28;19916;-81
2022/10/18 12:01:51;;;;;;;;;;;24.40;99.90;;;;;;5035351;28;20388;-84
2022/10/18 12:04:19;;;;;;;;;;;24.20;99.90;;;;;;5035057;28;19964;-84
2022/10/18 12:06:46;;;;;;;;;;;24.40;99.90;;;;;;5053905;28;20326;-84
2022/10/18 12:09:26;;;;;;;;;;;24.70;99.90;;;;;;5035201;28;19959;-83
2022/10/18 12:11:57;;;;;;;;;;;24.60;99.90;;;;;;5035293;28;19909;-83
2022/10/18 12:14:28;;;;;;;;;;;24.50;99.90;;;;;;5052948;28;20359;-82
2022/10/18 12:16:57;;;;;;;;;;;24.10;99.90;;;;;;5038650;28;19909;-85
2022/10/18 12:19:25;;;;;;;;;;;23.80;99.90;;;;;;5039902;28;20476;-84
2022/10/18 12:21:51;;;;;;;;;;;25.00;99.90;;;;;;5039157;28;19915;-85
2022/10/18 12:24:20;;;;;;;;;;;26.10;99.90;;;;;;5038446;28;20011;-83
2022/10/18 12:26:49;;;;;;;;;;;26.40;99.90;;;;;;5039728;28;20325;-84
2022/10/18 12:29:19;;;;;;;;;;;26.80;99.90;;;;;;5039081;28;20274;-84
2022/10/18 12:31:53;;;;;;;;;;;26.00;99.90;;;;;;5040060;28;19916;-83
2022/10/18 12:34:21;;;;;;;;;;;25.20;99.90;;;;;;5057423;28;19916;-85
2022/10/18 12:37:07;;;;;;;;;;;24.30;99.90;;;;;;5039762;28;19913;-83
2022/10/18 12:39:37;;;;;;;;;;;24.00;99.90;;;;;;5042054;28;19909;-83
2022/10/18 12:42:03;;;;;;;;;;;24.20;99.90;;;;;;5056675;28;19909;-84
2022/10/18 12:44:33;;;;;;;;;;;24.10;99.90;;;;;;5057062;28;19913;-84
2022/10/18 12:46:59;;;;;;;;;;;24.00;99.90;;;;;;5057497;28;20378;-84
2022/10/18 12:49:36;;;;;;;;;;;23.80;99.90;;;;;;5056980;28;19912;-85
2022/10/18 12:52:06;;;;;;;;;;;23.80;99.90;;;;;;5039159;28;19959;-84
2022/10/18 12:54:33;;;;;;;;;;;23.80;99.90;;;;;;5056846;28;19916;-84
2022/10/18 12:56:59;;;;;;;;;;;23.30;99.90;;;;;;5050845;28;19913;-84
2022/10/18 12:59:25;;;;;;;;;;;23.00;99.90;;;;;;5038798;28;19948;-84
2022/10/18 13:01:51;;;;;;;;;;;22.50;99.90;;;;;;5038553;28;19916;-84
2022/10/18 13:04:26;;;;;;;;;;;22.40;99.90;;;;;;5036685;28;19917;-79
2022/10/18 13:07:01;;;;;;;;;;;22.10;99.90;;;;;;5055055;28;19909;-78
2022/10/18 13:09:27;;;;;;;;;;;22.10;99.90;;;;;;5037107;28;19919;-78
2022/10/18 13:11:54;;;;;;;;;;;22.30;99.90;;;;;;5055045;28;19909;-80
2022/10/18 13:14:27;;;;;;;;;;;22.60;99.90;;;;;;5036835;28;19940;-79
2022/10/18 13:17:05;;;;;;;;;;;22.60;99.90;;;;;;5055403;28;20003;-79
2022/10/18 13:19:49;;;;;;;;;;;22.50;99.90;;;;;;5055590;28;19913;-80
2022/10/18 13:22:33;;;;;;;;;;;22.40;99.90;;;;;;5055386;28;20302;-79
2022/10/18 13:25:03;;;;;;;;;;;22.20;99.90;;;;;;5055254;28;19912;-80
2022/10/18 13:27:43;;;;;;;;;;;22.30;99.90;;;;;;5036031;28;20004;-80
2022/10/18 13:30:11;;;;;;;;;;;22.30;99.90;;;;;;5054439;28;19913;-80
2022/10/18 13:32:43;;;;;;;;;;;22.30;99.90;;;;;;5056070;28;19997;-80
2022/10/18 13:35:34;;;;;;;;;;;22.30;99.90;;;;;;5038380;28;19909;-79
2022/10/18 13:38:01;;;;;;;;;;;22.30;99.90;;;;;;5038415;28;19909;-80
2022/10/18 13:40:26;;;;;;;;;;;22.50;99.90;;;;;;5039022;28;19908;-80
2022/10/18 13:42:52;;;;;;;;;;;22.30;99.90;;;;;;5038312;28;20342;-79
2022/10/18 13:45:30;;;;;;;;;;;22.50;99.90;;;;;;5038681;28;19960;-79
2022/10/18 13:47:56;;;;;;;;;;;22.40;99.90;;;;;;5056285;28;19909;-81
2022/10/18 13:50:25;;;;;;;;;;;22.20;99.90;;;;;;5038269;28;19952;-79
2022/10/18 13:53:01;;;;;;;;;;;21.70;99.90;;;;;;5056281;28;19909;-79
2022/10/18 13:55:45;;;;;;;;;;;21.50;99.90;;;;;;5038108;28;20297;-81
2022/10/18 13:58:35;;;;;;;;;;;21.40;99.90;;;;;;5056144;28;19940;-80
2022/10/18 14:01:10;;;;;;;;;;;21.90;99.90;;;;;;5106949;22;19959;-89
2022/10/18 14:04:02;;;;;;;;;;;22.50;99.90;;;;;;5075757;28;20407;-88
2022/10/18 14:06:32;;;;;;;;;;;22.60;99.90;;;;;;5055488;28;20408;-89
2022/10/18 14:09:04;;;;;;;;;;;22.20;99.90;;;;;;5076104;28;19915;-89
2022/10/18 14:11:34;;;;;;;;;;;21.80;99.90;;;;;;5079811;28;19908;-87
2022/10/18 14:14:07;;;;;;;;;;;21.70;99.90;;;;;;5095711;28;19915;-86
2022/10/18 14:16:35;;;;;;;;;;;21.40;99.90;;;;;;5075988;28;19908;-85
2022/10/18 14:19:12;;;;;;;;;;;21.80;99.90;;;;;;5094053;28;19926;-86
2022/10/18 14:21:38;;;;;;;;;;;23.10;99.90;;;;;;5075851;28;19908;-85
2022/10/18 14:24:11;;;;;;;;;;;24.30;99.90;;;;;;5093622;28;19912;-85